Time;durP1;ratioP1;P1;durP2;ratioP2;P2;SDS_P1;SDS_P2;PMS_P1;PMS_P2;Temp;Humidity;BMP_temperature;BMP_pressure;BME280_temperature;BME280_humidity;BME280_pressure;Samples;Min_cycle;Max_cycle;Signal;HPM_P1;HPM_P2
2020/12/20 00:00:38;;;;;;;10.13;6.15;;;;;;;;;;5012434;28;20033;-72
2020/12/20 00:03:04;;;;;;;8.48;6.05;;;;;;;;;;5012726;28;20041;-75
2020/12/20 00:05:31;;;;;;;8.75;4.90;;;;;;;;;;5012452;28;20029;-75
2020/12/20 00:07:57;;;;;;;8.23;5.72;;;;;;;;;;5012678;28;20405;-75
2020/12/20 00:10:23;;;;;;;8.85;5.80;;;;;;;;;;5012435;28;20068;-74
2020/12/20 00:12:49;;;;;;;11.73;6.75;;;;;;;;;;5012446;28;20026;-75
2020/12/20 00:15:16;;;;;;;11.00;6.32;;;;;;;;;;5012433;28;20079;-74
2020/12/20 00:17:46;;;;;;;9.13;5.80;;;;;;;;;;5012435;28;20062;-70
2020/12/20 00:20:12;;;;;;;8.60;6.05;;;;;;;;;;5012270;28;20129;-72
2020/12/20 00:22:38;;;;;;;11.18;6.13;;;;;;;;;;5012344;28;20026;-71
2020/12/20 00:25:05;;;;;;;9.38;5.68;;;;;;;;;;5012978;28;20053;-75
2020/12/20 00:27:31;;;;;;;8.60;5.80;;;;;;;;;;5015886;28;20025;-75
2020/12/20 00:29:57;;;;;;;9.45;6.07;;;;;;;;;;5015991;28;20033;-72
2020/12/20 00:32:23;;;;;;;9.05;5.78;;;;;;;;;;5015759;28;20037;-72
2020/12/20 00:34:49;;;;;;;7.50;5.30;;;;;;;;;;5015831;28;20057;-74
2020/12/20 00:37:15;;;;;;;8.15;3.88;;;;;;;;;;5015681;28;20069;-75
2020/12/20 00:39:42;;;;;;;7.95;5.22;;;;;;;;;;5015584;28;20034;-75
2020/12/20 00:42:08;;;;;;;10.45;5.57;;;;;;;;;;5015634;28;20555;-75
2020/12/20 00:44:35;;;;;;;9.88;5.93;;;;;;;;;;5015528;28;20077;-75
2020/12/20 00:47:02;;;;;;;9.00;5.95;;;;;;;;;;5015518;28;20033;-74
2020/12/20 00:49:28;;;;;;;8.07;5.07;;;;;;;;;;5015739;28;20072;-74
2020/12/20 00:51:57;;;;;;;11.23;5.75;;;;;;;;;;5015596;28;20045;-74
2020/12/20 00:54:23;;;;;;;8.30;5.63;;;;;;;;;;5011918;28;20022;-73
2020/12/20 00:56:49;;;;;;;8.15;5.47;;;;;;;;;;5015249;28;20026;-74
2020/12/20 00:59:15;;;;;;;10.23;4.80;;;;;;;;;;5015058;28;20116;-74
2020/12/20 01:01:41;;;;;;;7.82;5.10;;;;;;;;;;5015257;28;20080;-75
2020/12/20 01:04:08;;;;;;;7.80;5.43;;;;;;;;;;4997585;28;20033;-75
2020/12/20 01:06:34;;;;;;;7.50;4.68;;;;;;;;;;4997250;28;20025;-75
2020/12/20 01:09:00;;;;;;;7.95;4.93;;;;;;;;;;5015134;28;20062;-74
2020/12/20 01:11:26;;;;;;;8.10;5.05;;;;;;;;;;5015313;28;20022;-74
2020/12/20 01:13:52;;;;;;;8.13;5.03;;;;;;;;;;5015013;28;20041;-71
2020/12/20 01:16:19;;;;;;;6.78;5.03;;;;;;;;;;5015051;28;20631;-72
2020/12/20 01:18:46;;;;;;;7.63;4.75;;;;;;;;;;5014972;28;20041;-71
2020/12/20 01:21:12;;;;;;;6.88;4.20;;;;;;;;;;5014751;28;20038;-73
2020/12/20 01:23:38;;;;;;;7.20;4.60;;;;;;;;;;5014832;28;20026;-74
2020/12/20 01:26:05;;;;;;;6.93;4.50;;;;;;;;;;5014711;28;20511;-75
2020/12/20 01:28:31;;;;;;;6.25;4.72;;;;;;;;;;5014773;28;20018;-75
2020/12/20 01:30:57;;;;;;;8.55;4.50;;;;;;;;;;5014736;28;20030;-74
2020/12/20 01:33:24;;;;;;;6.97;4.55;;;;;;;;;;5014587;28;20497;-71
2020/12/20 01:35:50;;;;;;;8.02;5.05;;;;;;;;;;5014563;28;20026;-72
2020/12/20 01:38:16;;;;;;;6.95;4.50;;;;;;;;;;5013605;28;20036;-74
2020/12/20 01:40:42;;;;;;;8.05;4.20;;;;;;;;;;5014359;28;20049;-71
2020/12/20 01:43:08;;;;;;;7.97;5.15;;;;;;;;;;5014400;28;20101;-74
2020/12/20 01:45:34;;;;;;;6.65;4.32;;;;;;;;;;5014359;28;20026;-71
2020/12/20 01:48:02;;;;;;;7.38;4.50;;;;;;;;;;5014372;28;20061;-73
2020/12/20 01:50:28;;;;;;;7.32;4.68;;;;;;;;;;5014499;28;20053;-74
2020/12/20 01:52:54;;;;;;;6.90;4.25;;;;;;;;;;5014450;28;20022;-73
2020/12/20 01:55:21;;;;;;;6.28;4.07;;;;;;;;;;5014288;28;20022;-74
2020/12/20 01:57:47;;;;;;;9.07;6.05;;;;;;;;;;5014160;28;20014;-74
2020/12/20 02:00:13;;;;;;;8.38;4.93;;;;;;;;;;5014014;28;20408;-72
2020/12/20 02:02:39;;;;;;;7.70;4.85;;;;;;;;;;5013973;28;20030;-74
2020/12/20 02:05:06;;;;;;;7.45;4.50;;;;;;;;;;5014061;28;20476;-74
2020/12/20 02:07:32;;;;;;;7.80;4.72;;;;;;;;;;5014001;28;20192;-74
2020/12/20 02:09:58;;;;;;;6.78;4.18;;;;;;;;;;5014173;28;20500;-74
2020/12/20 02:12:27;;;;;;;7.47;4.78;;;;;;;;;;5014074;28;20022;-72
2020/12/20 02:14:54;;;;;;;6.57;4.68;;;;;;;;;;5013927;28;20025;-72
2020/12/20 02:17:20;;;;;;;8.23;4.65;;;;;;;;;;5014082;28;20026;-74
2020/12/20 02:19:46;;;;;;;6.05;3.90;;;;;;;;;;5013600;28;20477;-71
2020/12/20 02:22:13;;;;;;;7.10;4.50;;;;;;;;;;5013773;28;20034;-71
2020/12/20 02:24:39;;;;;;;5.85;4.18;;;;;;;;;;5013479;28;20021;-74
2020/12/20 02:27:05;;;;;;;8.20;4.60;;;;;;;;;;5013596;28;20026;-74
2020/12/20 02:29:31;;;;;;;6.85;4.35;;;;;;;;;;5013395;28;20381;-73
2020/12/20 02:31:58;;;;;;;7.35;4.18;;;;;;;;;;5013603;28;20481;-73
2020/12/20 02:34:24;;;;;;;6.65;4.20;;;;;;;;;;5014042;28;20108;-73
2020/12/20 02:36:50;;;;;;;7.28;4.43;;;;;;;;;;5013392;28;20030;-74
2020/12/20 02:39:16;;;;;;;8.35;4.28;;;;;;;;;;5013254;28;20030;-71
2020/12/20 02:41:42;;;;;;;5.32;4.10;;;;;;;;;;5013477;28;20034;-72
2020/12/20 02:44:08;;;;;;;9.13;4.97;;;;;;;;;;5013252;28;20029;-73
2020/12/20 02:46:34;;;;;;;7.93;4.90;;;;;;;;;;5013310;28;20060;-73
2020/12/20 02:49:01;;;;;;;7.55;4.75;;;;;;;;;;5013031;28;20385;-72
2020/12/20 02:51:27;;;;;;;7.65;4.00;;;;;;;;;;5013578;28;20037;-73
2020/12/20 02:53:53;;;;;;;8.00;4.60;;;;;;;;;;5013338;28;20470;-73
2020/12/20 02:56:19;;;;;;;9.23;5.47;;;;;;;;;;5013183;28;20026;-72
2020/12/20 02:58:47;;;;;;;7.38;4.53;;;;;;;;;;5012873;28;20108;-73
2020/12/20 03:01:13;;;;;;;7.95;5.03;;;;;;;;;;5013076;28;20068;-72
2020/12/20 03:03:39;;;;;;;7.75;4.75;;;;;;;;;;5013125;28;20029;-73
2020/12/20 03:06:05;;;;;;;13.50;5.28;;;;;;;;;;5013087;28;20477;-74
2020/12/20 03:08:31;;;;;;;6.90;4.47;;;;;;;;;;5013220;28;20097;-73
2020/12/20 03:10:57;;;;;;;6.78;4.38;;;;;;;;;;5013286;28;20566;-73
2020/12/20 03:13:23;;;;;;;7.95;5.00;;;;;;;;;;5013138;28;20037;-72
2020/12/20 03:15:49;;;;;;;7.63;4.35;;;;;;;;;;5012956;28;20030;-73
2020/12/20 03:18:16;;;;;;;9.13;5.28;;;;;;;;;;5012959;28;20022;-72
2020/12/20 03:20:42;;;;;;;8.35;4.95;;;;;;;;;;5012848;28;20516;-72
2020/12/20 03:23:08;;;;;;;8.52;5.07;;;;;;;;;;5012898;28;20030;-73
2020/12/20 03:25:34;;;;;;;10.13;5.57;;;;;;;;;;4995410;28;20026;-73
2020/12/20 03:28:00;;;;;;;11.15;4.57;;;;;;;;;;5012915;28;20022;-73
2020/12/20 03:30:27;;;;;;;7.75;5.13;;;;;;;;;;5012917;28;20076;-73
2020/12/20 03:32:53;;;;;;;9.30;5.28;;;;;;;;;;5012684;28;20018;-72
2020/12/20 03:35:19;;;;;;;8.43;4.75;;;;;;;;;;5012706;28;20033;-73
2020/12/20 03:37:52;;;;;;;9.52;5.63;;;;;;;;;;5012705;28;20022;-73
2020/12/20 03:40:19;;;;;;;8.55;4.82;;;;;;;;;;5012659;28;20037;-73
2020/12/20 03:42:49;;;;;;;8.77;4.78;;;;;;;;;;5012634;28;20123;-73
2020/12/20 03:45:15;;;;;;;8.73;5.13;;;;;;;;;;5012619;28;20021;-73
2020/12/20 03:47:42;;;;;;;8.85;5.30;;;;;;;;;;4995055;28;20026;-73
2020/12/20 03:50:08;;;;;;;7.88;5.25;;;;;;;;;;5012594;28;20564;-73
2020/12/20 03:52:34;;;;;;;9.98;5.25;;;;;;;;;;5012521;28;20022;-74
2020/12/20 03:55:00;;;;;;;8.90;4.95;;;;;;;;;;5012528;28;20021;-73
2020/12/20 03:57:26;;;;;;;9.43;5.15;;;;;;;;;;5012424;28;20022;-73
2020/12/20 03:59:52;;;;;;;8.65;5.07;;;;;;;;;;5012495;28;20053;-73
2020/12/20 04:02:18;;;;;;;7.75;4.80;;;;;;;;;;5016386;28;20022;-73
2020/12/20 04:04:45;;;;;;;7.00;4.47;;;;;;;;;;5016257;28;20036;-74
2020/12/20 04:07:11;;;;;;;8.38;5.10;;;;;;;;;;5016321;28;20026;-74
2020/12/20 04:09:37;;;;;;;8.05;4.80;;;;;;;;;;5016236;28;20026;-73
2020/12/20 04:12:03;;;;;;;7.75;4.72;;;;;;;;;;5016034;28;20029;-74
2020/12/20 04:14:30;;;;;;;8.30;4.80;;;;;;;;;;5016127;28;20152;-73
2020/12/20 04:16:56;;;;;;;7.72;4.80;;;;;;;;;;5016188;28;20061;-73
2020/12/20 04:19:22;;;;;;;10.65;5.72;;;;;;;;;;5015704;28;20489;-73
2020/12/20 04:21:48;;;;;;;9.00;5.13;;;;;;;;;;5015914;28;20084;-74
2020/12/20 04:24:15;;;;;;;8.63;5.15;;;;;;;;;;5015894;28;20029;-72
2020/12/20 04:26:41;;;;;;;6.28;4.10;;;;;;;;;;5015811;28;20025;-73
2020/12/20 04:29:07;;;;;;;7.38;4.55;;;;;;;;;;5015844;28;20105;-74
2020/12/20 04:31:33;;;;;;;7.75;4.68;;;;;;;;;;5015696;28;20029;-73
2020/12/20 04:34:00;;;;;;;9.20;4.93;;;;;;;;;;5015760;28;20358;-73
2020/12/20 04:36:26;;;;;;;6.70;4.53;;;;;;;;;;5015972;28;20150;-73
2020/12/20 04:38:52;;;;;;;9.20;5.20;;;;;;;;;;5011952;28;20026;-74
2020/12/20 04:41:21;;;;;;;7.90;4.50;;;;;;;;;;5015452;28;20029;-74
2020/12/20 04:43:48;;;;;;;6.80;4.70;;;;;;;;;;5015637;28;20496;-73
2020/12/20 04:46:15;;;;;;;6.95;5.07;;;;;;;;;;5015493;28;20022;-74
2020/12/20 04:48:42;;;;;;;8.10;4.57;;;;;;;;;;5014261;28;20033;-72
2020/12/20 04:51:08;;;;;;;7.82;4.82;;;;;;;;;;4997717;28;20158;-74
2020/12/20 04:53:34;;;;;;;10.00;5.40;;;;;;;;;;5015314;28;20117;-74
2020/12/20 04:56:05;;;;;;;8.15;5.07;;;;;;;;;;5015455;28;20022;-74
2020/12/20 04:58:31;;;;;;;7.20;4.55;;;;;;;;;;5015404;28;20034;-75
2020/12/20 05:00:58;;;;;;;7.68;4.60;;;;;;;;;;5015180;28;20038;-75
2020/12/20 05:03:25;;;;;;;6.55;4.47;;;;;;;;;;5015248;28;20048;-73
2020/12/20 05:05:51;;;;;;;6.35;4.53;;;;;;;;;;5015133;28;20109;-73
2020/12/20 05:08:20;;;;;;;8.13;4.68;;;;;;;;;;5015263;28;20092;-75
2020/12/20 05:10:46;;;;;;;8.32;4.70;;;;;;;;;;5015326;28;20030;-75
2020/12/20 05:13:12;;;;;;;7.00;4.40;;;;;;;;;;5014958;28;20516;-74
2020/12/20 05:15:38;;;;;;;8.13;4.85;;;;;;;;;;5014861;28;20367;-74
2020/12/20 05:18:08;;;;;;;8.45;5.00;;;;;;;;;;5015135;28;20030;-75
2020/12/20 05:20:40;;;;;;;6.13;4.20;;;;;;;;;;5014877;28;20432;-73
2020/12/20 05:23:07;;;;;;;7.35;4.93;;;;;;;;;;5014662;28;20105;-73
2020/12/20 05:25:34;;;;;;;8.98;4.88;;;;;;;;;;5014898;28;20037;-75
2020/12/20 05:28:11;;;;;;;6.90;4.60;;;;;;;;;;5014781;28;20026;-75
2020/12/20 05:30:38;;;;;;;7.10;4.40;;;;;;;;;;5014707;28;20026;-75
2020/12/20 05:33:04;;;;;;;6.28;4.30;;;;;;;;;;5014662;28;20030;-75
2020/12/20 05:35:31;;;;;;;7.97;4.80;;;;;;;;;;5014804;28;20073;-75
2020/12/20 05:37:58;;;;;;;7.68;4.53;;;;;;;;;;5014994;28;20041;-73
2020/12/20 05:40:31;;;;;;;9.25;4.82;;;;;;;;;;5014725;28;20030;-73
2020/12/20 05:42:58;;;;;;;9.77;5.40;;;;;;;;;;5014631;28;20493;-75
2020/12/20 05:45:25;;;;;;;9.23;5.35;;;;;;;;;;5014651;28;20366;-73
2020/12/20 05:47:52;;;;;;;7.40;4.97;;;;;;;;;;5014469;28;20381;-75
2020/12/20 05:50:18;;;;;;;9.10;5.38;;;;;;;;;;5014353;28;20029;-75
2020/12/20 05:52:59;;;;;;;8.02;4.63;;;;;;;;;;5014330;28;20033;-74
2020/12/20 05:55:33;;;;;;;7.32;4.97;;;;;;;;;;5014716;28;20032;-75
2020/12/20 05:58:06;;;;;;;9.05;4.82;;;;;;;;;;5014227;28;20029;-74
2020/12/20 06:00:34;;;;;;;10.30;5.67;;;;;;;;;;5014159;28;20041;-75
2020/12/20 06:03:00;;;;;;;8.70;4.90;;;;;;;;;;5014318;28;20426;-75
2020/12/20 06:05:32;;;;;;;8.02;5.15;;;;;;;;;;5014261;28;20033;-73
2020/12/20 06:08:03;;;;;;;7.57;4.45;;;;;;;;;;4996471;28;20022;-73
2020/12/20 06:10:33;;;;;;;7.07;4.45;;;;;;;;;;5014338;28;20038;-73
2020/12/20 06:13:03;;;;;;;7.68;4.95;;;;;;;;;;5014062;28;20022;-75
2020/12/20 06:15:32;;;;;;;7.70;5.10;;;;;;;;;;5014080;28;20037;-75
2020/12/20 06:18:02;;;;;;;8.23;5.22;;;;;;;;;;5014223;28;20477;-74
2020/12/20 06:20:29;;;;;;;9.23;5.47;;;;;;;;;;5014038;28;20478;-76
2020/12/20 06:22:55;;;;;;;9.52;5.53;;;;;;;;;;5013682;28;20026;-75
2020/12/20 06:25:26;;;;;;;8.57;5.05;;;;;;;;;;5013737;28;20354;-75
2020/12/20 06:27:52;;;;;;;7.38;5.18;;;;;;;;;;5014035;28;20092;-75
2020/12/20 06:30:20;;;;;;;7.82;5.10;;;;;;;;;;5013797;28;20030;-75
2020/12/20 06:32:47;;;;;;;10.25;5.70;;;;;;;;;;5013643;28;20068;-76
2020/12/20 06:35:13;;;;;;;9.43;5.85;;;;;;;;;;5013585;28;20037;-73
2020/12/20 06:37:40;;;;;;;10.40;5.80;;;;;;;;;;4996075;28;20026;-75
2020/12/20 06:40:06;;;;;;;9.63;5.43;;;;;;;;;;5013352;28;20037;-73
2020/12/20 06:42:37;;;;;;;9.80;5.80;;;;;;;;;;5013496;28;20022;-76
2020/12/20 06:45:15;;;;;;;7.97;5.13;;;;;;;;;;5013230;28;20026;-76
2020/12/20 06:47:45;;;;;;;8.98;5.32;;;;;;;;;;5013407;28;20022;-76
2020/12/20 06:50:12;;;;;;;10.27;5.90;;;;;;;;;;5013336;28;20109;-76
2020/12/20 06:52:45;;;;;;;10.38;5.75;;;;;;;;;;5013340;28;20018;-76
2020/12/20 06:55:12;;;;;;;8.80;5.57;;;;;;;;;;5013372;28;20022;-76
2020/12/20 06:57:57;;;;;;;9.43;5.63;;;;;;;;;;5013441;28;20022;-76
2020/12/20 07:00:42;;;;;;;13.73;6.18;;;;;;;;;;5012974;28;20041;-75
2020/12/20 07:03:23;;;;;;;11.52;6.55;;;;;;;;;;4995600;28;20022;-75
2020/12/20 07:05:50;;;;;;;15.43;7.85;;;;;;;;;;5013212;28;20085;-76
2020/12/20 07:08:23;;;;;;;14.90;7.75;;;;;;;;;;5013167;28;20026;-75
2020/12/20 07:10:53;;;;;;;24.80;14.00;;;;;;;;;;5013063;28;20033;-73
2020/12/20 07:13:36;;;;;;;20.33;11.95;;;;;;;;;;4995368;28;20661;-76
2020/12/20 07:16:05;;;;;;;20.23;11.32;;;;;;;;;;5013073;28;20038;-75
2020/12/20 07:18:42;;;;;;;17.83;9.70;;;;;;;;;;5012834;28;20380;-76
2020/12/20 07:21:10;;;;;;;14.95;9.02;;;;;;;;;;5012781;28;20485;-73
2020/12/20 07:23:39;;;;;;;15.30;9.15;;;;;;;;;;5012745;28;20083;-76
2020/12/20 07:26:05;;;;;;;13.90;8.70;;;;;;;;;;5012735;28;20037;-76
2020/12/20 07:28:31;;;;;;;12.20;7.75;;;;;;;;;;5012810;28;20041;-76
2020/12/20 07:30:57;;;;;;;10.98;6.10;;;;;;;;;;5012901;28;20104;-74
2020/12/20 07:33:23;;;;;;;11.43;6.78;;;;;;;;;;5013125;28;20029;-76
2020/12/20 07:35:49;;;;;;;13.40;7.38;;;;;;;;;;4993541;28;20076;-74
2020/12/20 07:38:16;;;;;;;15.77;8.95;;;;;;;;;;4973309;28;20617;-75
2020/12/20 07:40:42;;;;;;;15.55;8.43;;;;;;;;;;4990609;28;20046;-75
2020/12/20 07:43:08;;;;;;;15.48;9.38;;;;;;;;;;5000347;28;20022;-76
2020/12/20 07:45:34;;;;;;;17.70;10.02;;;;;;;;;;5010112;28;20499;-75
2020/12/20 07:48:00;;;;;;;18.13;9.77;;;;;;;;;;5009948;28;20048;-74
2020/12/20 07:50:27;;;;;;;17.70;9.45;;;;;;;;;;5009885;28;20029;-74
2020/12/20 07:52:53;;;;;;;18.02;10.45;;;;;;;;;;5009893;28;20361;-74
2020/12/20 07:55:19;;;;;;;28.65;13.82;;;;;;;;;;5009105;28;20112;-75
2020/12/20 07:57:46;;;;;;;23.58;11.70;;;;;;;;;;5009471;28;20026;-74
2020/12/20 08:00:12;;;;;;;17.80;10.45;;;;;;;;;;5009202;28;20054;-74
2020/12/20 08:02:39;;;;;;;16.35;8.82;;;;;;;;;;5009820;28;20022;-75
2020/12/20 08:05:09;;;;;;;14.20;8.18;;;;;;;;;;5009884;28;20030;-74
2020/12/20 08:07:35;;;;;;;14.90;7.90;;;;;;;;;;5009857;28;20065;-74
2020/12/20 08:10:01;;;;;;;12.95;7.65;;;;;;;;;;5009822;28;20068;-75
2020/12/20 08:12:27;;;;;;;12.88;6.95;;;;;;;;;;5009171;28;20060;-73
2020/12/20 08:15:02;;;;;;;10.75;6.65;;;;;;;;;;5009979;28;20438;-74
2020/12/20 08:17:29;;;;;;;12.88;7.25;;;;;;;;;;5009751;28;20037;-74
2020/12/20 08:19:55;;;;;;;13.85;7.45;;;;;;;;;;5009694;28;20034;-75
2020/12/20 08:22:23;;;;;;;17.58;10.00;;;;;;;;;;5009855;28;20482;-75
2020/12/20 08:24:49;;;;;;;13.98;8.27;;;;;;;;;;5009406;28;20029;-75
2020/12/20 08:27:17;;;;;;;13.75;8.52;;;;;;;;;;5009661;28;20068;-75
2020/12/20 08:29:44;;;;;;;18.42;9.45;;;;;;;;;;5009664;28;20026;-75
2020/12/20 08:32:12;;;;;;;14.70;8.15;;;;;;;;;;5009733;28;20452;-74
2020/12/20 08:34:38;;;;;;;14.68;8.30;;;;;;;;;;5009797;28;20104;-75
2020/12/20 08:37:08;;;;;;;12.00;7.35;;;;;;;;;;4999590;28;20393;-75
2020/12/20 08:39:35;;;;;;;15.32;7.93;;;;;;;;;;4989958;28;20471;-75
2020/12/20 08:42:02;;;;;;;13.63;7.55;;;;;;;;;;4989933;28;20042;-75
2020/12/20 08:44:28;;;;;;;12.40;7.20;;;;;;;;;;4990126;28;20054;-75
2020/12/20 08:47:04;;;;;;;14.70;7.50;;;;;;;;;;4991917;28;20038;-75
2020/12/20 08:49:30;;;;;;;12.43;7.20;;;;;;;;;;4992833;28;20162;-74
2020/12/20 08:52:04;;;;;;;13.43;7.05;;;;;;;;;;4993393;28;20105;-74
2020/12/20 08:54:31;;;;;;;12.85;7.30;;;;;;;;;;4993322;28;20474;-76
2020/12/20 08:56:57;;;;;;;12.38;7.70;;;;;;;;;;4993508;28;20054;-74
2020/12/20 08:59:34;;;;;;;11.90;7.22;;;;;;;;;;4993315;28;20054;-75
2020/12/20 09:02:00;;;;;;;11.90;7.10;;;;;;;;;;4992888;28;20041;-75
2020/12/20 09:04:28;;;;;;;17.00;9.18;;;;;;;;;;4993210;28;20030;-74
2020/12/20 09:07:01;;;;;;;16.42;10.20;;;;;;;;;;4975792;28;20026;-73
2020/12/20 09:09:27;;;;;;;19.17;10.88;;;;;;;;;;4996892;28;20033;-75
2020/12/20 09:11:53;;;;;;;17.23;9.40;;;;;;;;;;5010152;28;20037;-75
2020/12/20 09:14:19;;;;;;;16.73;9.40;;;;;;;;;;5011212;28;20080;-75
2020/12/20 09:16:46;;;;;;;17.17;10.43;;;;;;;;;;4994081;28;20084;-74
2020/12/20 09:19:12;;;;;;;17.75;9.60;;;;;;;;;;5012243;28;20489;-75
2020/12/20 09:21:38;;;;;;;16.25;9.90;;;;;;;;;;5011582;28;20095;-75
2020/12/20 09:24:04;;;;;;;14.60;8.48;;;;;;;;;;5011720;28;20033;-75
2020/12/20 09:26:30;;;;;;;14.13;8.68;;;;;;;;;;5011341;28;20033;-76
2020/12/20 09:28:57;;;;;;;14.02;8.20;;;;;;;;;;5010778;28;20030;-75
2020/12/20 09:31:23;;;;;;;21.45;11.00;;;;;;;;;;5011985;28;20026;-75
2020/12/20 09:33:49;;;;;;;15.95;8.93;;;;;;;;;;5011777;28;20656;-74
2020/12/20 09:36:23;;;;;;;25.55;14.50;;;;;;;;;;5011311;28;20476;-74
2020/12/20 09:38:49;;;;;;;17.17;10.40;;;;;;;;;;5011510;28;20536;-73
2020/12/20 09:41:16;;;;;;;13.75;7.88;;;;;;;;;;5011601;28;20088;-76
2020/12/20 09:43:43;;;;;;;15.27;8.75;;;;;;;;;;5011457;28;20072;-74
2020/12/20 09:46:10;;;;;;;18.25;9.98;;;;;;;;;;5011715;28;20030;-73
2020/12/20 09:48:36;;;;;;;22.92;13.23;;;;;;;;;;5011184;28;20105;-75
2020/12/20 09:51:02;;;;;;;25.70;13.90;;;;;;;;;;5011365;28;20042;-74
2020/12/20 09:53:28;;;;;;;21.95;12.52;;;;;;;;;;5011479;28;20455;-74
2020/12/20 09:55:55;;;;;;;21.23;12.02;;;;;;;;;;5011573;28;20076;-76
2020/12/20 09:58:21;;;;;;;21.65;11.80;;;;;;;;;;5010239;28;20050;-75
2020/12/20 10:00:47;;;;;;;22.70;11.88;;;;;;;;;;5010779;28;20115;-74
2020/12/20 10:03:13;;;;;;;21.05;12.20;;;;;;;;;;5011126;28;20030;-74
2020/12/20 10:05:42;;;;;;;22.73;12.90;;;;;;;;;;5011218;28;20034;-74
2020/12/20 10:08:08;;;;;;;24.50;13.40;;;;;;;;;;5010780;28;20635;-75
2020/12/20 10:10:34;;;;;;;25.17;14.88;;;;;;;;;;5011266;28;20129;-74
2020/12/20 10:13:01;;;;;;;22.77;14.60;;;;;;;;;;5010751;28;20030;-75
2020/12/20 10:15:27;;;;;;;23.75;13.93;;;;;;;;;;5010859;28;20057;-74
2020/12/20 10:17:53;;;;;;;18.17;10.80;;;;;;;;;;5010904;28;20025;-75
2020/12/20 10:20:19;;;;;;;22.60;13.23;;;;;;;;;;5010429;28;20034;-74
2020/12/20 10:22:45;;;;;;;21.52;12.55;;;;;;;;;;5010412;28;20123;-76
2020/12/20 10:25:11;;;;;;;17.27;10.88;;;;;;;;;;5010446;28;20022;-75
2020/12/20 10:27:38;;;;;;;16.45;9.98;;;;;;;;;;5010883;28;20485;-76
2020/12/20 10:30:04;;;;;;;17.85;11.13;;;;;;;;;;5010820;28;20564;-76
2020/12/20 10:32:30;;;;;;;21.92;10.63;;;;;;;;;;5010692;28;20474;-75
2020/12/20 10:34:56;;;;;;;23.35;13.10;;;;;;;;;;4993141;28;20390;-74
2020/12/20 10:37:22;;;;;;;23.02;14.15;;;;;;;;;;4998375;28;20371;-74
2020/12/20 10:39:48;;;;;;;24.75;14.60;;;;;;;;;;4990775;28;20053;-74
2020/12/20 10:42:14;;;;;;;23.67;13.45;;;;;;;;;;4990773;28;20042;-75
2020/12/20 10:44:41;;;;;;;23.00;13.55;;;;;;;;;;4990780;28;20036;-75
2020/12/20 10:47:07;;;;;;;22.30;13.65;;;;;;;;;;4990936;28;20105;-74
2020/12/20 10:49:34;;;;;;;22.80;13.82;;;;;;;;;;4990144;28;20028;-77
2020/12/20 10:52:00;;;;;;;20.15;10.60;;;;;;;;;;4990466;28;20027;-74
2020/12/20 10:54:29;;;;;;;14.18;9.05;;;;;;;;;;4991142;28;20596;-74
2020/12/20 10:56:58;;;;;;;18.05;10.88;;;;;;;;;;4991005;28;20026;-75
2020/12/20 10:59:24;;;;;;;15.35;9.13;;;;;;;;;;4989728;28;20133;-74
2020/12/20 11:01:50;;;;;;;19.20;10.65;;;;;;;;;;4990312;28;20117;-75
2020/12/20 11:04:16;;;;;;;18.25;9.93;;;;;;;;;;4990449;28;20046;-75
2020/12/20 11:06:42;;;;;;;16.02;10.32;;;;;;;;;;4990531;28;20048;-75
2020/12/20 11:09:08;;;;;;;15.52;8.95;;;;;;;;;;4990433;28;20026;-75
2020/12/20 11:11:34;;;;;;;16.77;9.35;;;;;;;;;;4990323;28;20022;-75
2020/12/20 11:14:01;;;;;;;12.55;7.47;;;;;;;;;;4990181;28;20112;-74
2020/12/20 11:16:27;;;;;;;15.55;8.75;;;;;;;;;;4990352;28;20023;-75
2020/12/20 11:18:53;;;;;;;17.23;8.98;;;;;;;;;;4990885;28;20030;-75
2020/12/20 11:21:20;;;;;;;17.55;9.02;;;;;;;;;;4990575;28;20045;-75
2020/12/20 11:23:47;;;;;;;15.85;9.00;;;;;;;;;;4990552;28;20018;-74
2020/12/20 11:26:17;;;;;;;14.30;8.05;;;;;;;;;;4990571;28;20033;-75
2020/12/20 11:28:44;;;;;;;13.80;8.10;;;;;;;;;;4990434;28;20398;-75
2020/12/20 11:31:21;;;;;;;12.93;7.97;;;;;;;;;;4972870;28;20026;-74
2020/12/20 11:33:48;;;;;;;13.82;8.13;;;;;;;;;;4990324;28;20774;-74
2020/12/20 11:36:20;;;;;;;13.20;7.40;;;;;;;;;;4992693;28;20872;-75
2020/12/20 11:38:48;;;;;;;12.05;7.32;;;;;;;;;;5009903;28;20443;-75
2020/12/20 11:41:14;;;;;;;14.77;8.05;;;;;;;;;;5010427;28;20041;-76
2020/12/20 11:43:40;;;;;;;13.55;7.63;;;;;;;;;;5010470;28;20026;-75
2020/12/20 11:46:06;;;;;;;12.95;7.28;;;;;;;;;;5010570;28;20029;-75
2020/12/20 11:48:32;;;;;;;12.13;6.72;;;;;;;;;;5010237;28;20061;-75
2020/12/20 11:50:58;;;;;;;11.05;6.25;;;;;;;;;;5010389;28;20504;-75
2020/12/20 11:53:26;;;;;;;12.23;6.72;;;;;;;;;;5010479;28;20084;-75
2020/12/20 11:55:52;;;;;;;12.88;7.63;;;;;;;;;;5010290;28;20022;-74
2020/12/20 11:58:18;;;;;;;11.48;6.95;;;;;;;;;;5010038;28;20042;-75
2020/12/20 12:00:45;;;;;;;13.30;7.40;;;;;;;;;;5009873;28;20049;-75
2020/12/20 12:03:13;;;;;;;12.10;7.35;;;;;;;;;;5010122;28;20018;-76
2020/12/20 12:05:39;;;;;;;11.02;6.40;;;;;;;;;;5010015;28;20563;-75
2020/12/20 12:08:06;;;;;;;13.50;7.47;;;;;;;;;;5010210;28;20041;-75
2020/12/20 12:10:32;;;;;;;11.98;7.15;;;;;;;;;;5010128;28;20071;-75
2020/12/20 12:12:58;;;;;;;10.35;6.43;;;;;;;;;;5009889;28;20093;-74
2020/12/20 12:15:24;;;;;;;8.88;5.93;;;;;;;;;;5010180;28;20018;-76
2020/12/20 12:17:50;;;;;;;10.75;5.88;;;;;;;;;;5010091;28;20389;-76
2020/12/20 12:20:16;;;;;;;9.55;5.78;;;;;;;;;;5009903;28;20489;-75
2020/12/20 12:22:42;;;;;;;8.63;4.90;;;;;;;;;;5013153;28;20080;-75
2020/12/20 12:25:08;;;;;;;9.13;5.10;;;;;;;;;;4995776;28;20030;-76
2020/12/20 12:27:35;;;;;;;8.52;5.38;;;;;;;;;;4995917;28;20033;-75
2020/12/20 12:30:01;;;;;;;8.50;5.18;;;;;;;;;;5013570;28;20030;-75
2020/12/20 12:32:27;;;;;;;6.95;4.15;;;;;;;;;;4996153;28;20038;-75
2020/12/20 12:34:53;;;;;;;7.18;5.00;;;;;;;;;;5013787;28;20029;-75
2020/12/20 12:37:19;;;;;;;8.55;5.00;;;;;;;;;;5001539;28;20089;-75
2020/12/20 12:39:45;;;;;;;6.38;4.38;;;;;;;;;;4993820;28;20385;-75
2020/12/20 12:42:11;;;;;;;6.72;4.43;;;;;;;;;;4993783;28;20037;-75
2020/12/20 12:44:41;;;;;;;8.45;5.05;;;;;;;;;;4976189;28;20076;-75
2020/12/20 12:47:07;;;;;;;7.35;4.80;;;;;;;;;;4993353;28;20397;-75
2020/12/20 12:49:33;;;;;;;9.27;5.57;;;;;;;;;;4993089;28;20382;-75
2020/12/20 12:51:59;;;;;;;8.90;5.10;;;;;;;;;;4993359;28;20524;-75
2020/12/20 12:54:25;;;;;;;8.90;4.85;;;;;;;;;;5012754;28;20441;-75
2020/12/20 12:56:52;;;;;;;8.85;5.03;;;;;;;;;;5013124;28;20496;-75
2020/12/20 12:59:18;;;;;;;9.73;5.53;;;;;;;;;;5013127;28;20057;-75
2020/12/20 13:01:44;;;;;;;9.63;5.70;;;;;;;;;;5012485;28;20440;-75
2020/12/20 13:04:11;;;;;;;8.88;6.00;;;;;;;;;;5013049;28;20449;-76
2020/12/20 13:06:40;;;;;;;10.57;6.57;;;;;;;;;;5012913;28;20101;-75
2020/12/20 13:09:07;;;;;;;11.25;6.90;;;;;;;;;;5012826;28;20026;-75
2020/12/20 13:11:34;;;;;;;11.13;7.50;;;;;;;;;;5012742;28;20842;-75
2020/12/20 13:14:00;;;;;;;11.52;7.47;;;;;;;;;;5012511;28;20048;-75
2020/12/20 13:16:26;;;;;;;11.30;7.43;;;;;;;;;;5012765;28;20787;-75
2020/12/20 13:18:53;;;;;;;14.20;8.57;;;;;;;;;;5012192;28;20076;-74
2020/12/20 13:21:19;;;;;;;12.90;8.25;;;;;;;;;;5012632;28;20834;-74
2020/12/20 13:23:46;;;;;;;12.45;8.43;;;;;;;;;;5012461;28;20442;-75
2020/12/20 13:26:12;;;;;;;11.93;8.15;;;;;;;;;;5012148;28;20493;-75
2020/12/20 13:28:38;;;;;;;10.07;6.78;;;;;;;;;;5012238;28;20053;-75
2020/12/20 13:31:05;;;;;;;12.77;8.18;;;;;;;;;;5012106;28;20148;-75
2020/12/20 13:33:31;;;;;;;17.08;10.05;;;;;;;;;;5011015;28;20021;-75
2020/12/20 13:35:57;;;;;;;10.30;6.57;;;;;;;;;;5011373;28;20104;-74
2020/12/20 13:38:23;;;;;;;9.13;5.95;;;;;;;;;;4992727;28;20023;-75
2020/12/20 13:40:50;;;;;;;21.00;10.63;;;;;;;;;;4992336;28;20429;-75
2020/12/20 13:43:16;;;;;;;43.80;20.75;;;;;;;;;;4992750;28;20029;-75
2020/12/20 13:45:45;;;;;;;10.40;5.75;;;;;;;;;;4992679;28;20517;-75
2020/12/20 13:48:11;;;;;;;11.20;6.70;;;;;;;;;;4992114;28;20026;-75
2020/12/20 13:50:38;;;;;;;9.75;4.97;;;;;;;;;;4992325;28;20026;-74
2020/12/20 13:53:04;;;;;;;23.65;12.15;;;;;;;;;;4992332;28;20030;-75
2020/12/20 13:55:30;;;;;;;17.17;9.75;;;;;;;;;;4992285;28;20038;-74
2020/12/20 13:57:56;;;;;;;14.25;8.40;;;;;;;;;;4992191;28;20029;-74
2020/12/20 14:00:22;;;;;;;15.30;8.65;;;;;;;;;;4991894;28;20121;-74
2020/12/20 14:02:52;;;;;;;20.40;12.30;;;;;;;;;;4992168;28;20486;-74
2020/12/20 14:05:18;;;;;;;13.63;8.18;;;;;;;;;;4974758;28;20587;-74
2020/12/20 14:07:44;;;;;;;13.02;8.63;;;;;;;;;;4992168;28;20038;-74
2020/12/20 14:10:11;;;;;;;14.93;7.75;;;;;;;;;;4992352;28;20544;-73
2020/12/20 14:12:37;;;;;;;15.73;8.20;;;;;;;;;;4991910;28;20056;-74
2020/12/20 14:15:06;;;;;;;10.57;6.20;;;;;;;;;;4991998;28;20030;-75
2020/12/20 14:17:36;;;;;;;18.55;11.73;;;;;;;;;;4991761;28;20390;-74
2020/12/20 14:20:10;;;;;;;15.57;10.10;;;;;;;;;;4991575;28;20045;-75
2020/12/20 14:22:37;;;;;;;15.20;9.68;;;;;;;;;;4991841;28;20037;-75
2020/12/20 14:25:03;;;;;;;9.32;5.07;;;;;;;;;;4998834;28;20034;-74
2020/12/20 14:27:31;;;;;;;7.85;5.10;;;;;;;;;;5011045;28;20034;-74
2020/12/20 14:29:57;;;;;;;11.13;6.15;;;;;;;;;;5010848;28;20109;-74
2020/12/20 14:32:23;;;;;;;16.45;8.55;;;;;;;;;;5011434;28;20098;-74